sensor_id;sensor_type;location;lat;lon;timestamp;P1;durP1;ratioP1;P2;durP2;ratioP2
5939;SDS011;2995;-31.998;115.906;2023-03-22T00:00:41;16.17;;;3.33;;
5939;SDS011;2995;-31.998;115.906;2023-03-22T00:03:13;10.37;;;2.53;;
5939;SDS011;2995;-31.998;115.906;2023-03-22T00:05:44;15.00;;;3.47;;
5939;SDS011;2995;-31.998;115.906;2023-03-22T00:08:15;13.73;;;2.77;;
5939;SDS011;2995;-31.998;115.906;2023-03-22T00:10:49;11.10;;;3.03;;
5939;SDS011;2995;-31.998;115.906;2023-03-22T00:13:23;11.43;;;3.07;;
5939;SDS011;2995;-31.998;115.906;2023-03-22T00:15:54;14.67;;;3.30;;
5939;SDS011;2995;-31.998;115.906;2023-03-22T00:18:28;9.97;;;2.80;;
5939;SDS011;2995;-31.998;115.906;2023-03-22T00:21:00;12.50;;;3.07;;
5939;SDS011;2995;-31.998;115.906;2023-03-22T00:23:31;11.30;;;3.47;;
5939;SDS011;2995;-31.998;115.906;2023-03-22T00:26:02;14.50;;;3.40;;
5939;SDS011;2995;-31.998;115.906;2023-03-22T00:28:36;23.30;;;4.37;;
5939;SDS011;2995;-31.998;115.906;2023-03-22T00:31:07;11.63;;;2.70;;
5939;SDS011;2995;-31.998;115.906;2023-03-22T00:33:39;15.13;;;3.17;;
5939;SDS011;2995;-31.998;115.906;2023-03-22T00:36:10;14.40;;;3.47;;
5939;SDS011;2995;-31.998;115.906;2023-03-22T00:38:41;14.23;;;3.30;;
5939;SDS011;2995;-31.998;115.906;2023-03-22T00:41:13;14.17;;;3.00;;
5939;SDS011;2995;-31.998;115.906;2023-03-22T00:43:49;9.13;;;2.43;;
5939;SDS011;2995;-31.998;115.906;2023-03-22T00:46:21;11.63;;;3.30;;
5939;SDS011;2995;-31.998;115.906;2023-03-22T00:48:52;12.10;;;2.63;;
5939;SDS011;2995;-31.998;115.906;2023-03-22T00:51:23;16.03;;;3.17;;
5939;SDS011;2995;-31.998;115.906;2023-03-22T00:53:54;16.37;;;3.27;;
5939;SDS011;2995;-31.998;115.906;2023-03-22T00:56:26;12.80;;;3.13;;
5939;SDS011;2995;-31.998;115.906;2023-03-22T00:59:01;12.23;;;3.40;;
5939;SDS011;2995;-31.998;115.906;2023-03-22T01:01:32;15.57;;;3.17;;
5939;SDS011;2995;-31.998;115.906;2023-03-22T01:04:03;9.23;;;2.73;;
5939;SDS011;2995;-31.998;115.906;2023-03-22T01:06:35;12.23;;;3.10;;
5939;SDS011;2995;-31.998;115.906;2023-03-22T01:09:07;11.30;;;2.87;;
5939;SDS011;2995;-31.998;115.906;2023-03-22T01:11:40;15.90;;;3.23;;
5939;SDS011;2995;-31.998;115.906;2023-03-22T01:14:13;10.30;;;2.77;;
5939;SDS011;2995;-31.998;115.906;2023-03-22T01:16:45;8.90;;;2.93;;
5939;SDS011;2995;-31.998;115.906;2023-03-22T01:19:16;11.27;;;2.53;;
5939;SDS011;2995;-31.998;115.906;2023-03-22T01:21:47;13.03;;;2.50;;
5939;SDS011;2995;-31.998;115.906;2023-03-22T01:24:18;13.67;;;3.07;;
5939;SDS011;2995;-31.998;115.906;2023-03-22T01:26:50;15.70;;;3.07;;
5939;SDS011;2995;-31.998;115.906;2023-03-22T01:29:23;10.00;;;3.23;;
5939;SDS011;2995;-31.998;115.906;2023-03-22T01:31:56;7.03;;;2.47;;
5939;SDS011;2995;-31.998;115.906;2023-03-22T01:34:27;8.20;;;2.20;;
5939;SDS011;2995;-31.998;115.906;2023-03-22T01:36:58;8.00;;;2.57;;
5939;SDS011;2995;-31.998;115.906;2023-03-22T01:39:30;11.20;;;2.80;;
5939;SDS011;2995;-31.998;115.906;2023-03-22T01:42:01;7.07;;;2.50;;
5939;SDS011;2995;-31.998;115.906;2023-03-22T01:44:35;12.23;;;3.17;;
5939;SDS011;2995;-31.998;115.906;2023-03-22T01:47:07;7.17;;;2.40;;
5939;SDS011;2995;-31.998;115.906;2023-03-22T01:49:39;5.77;;;2.10;;
5939;SDS011;2995;-31.998;115.906;2023-03-22T01:52:10;13.27;;;2.50;;
5939;SDS011;2995;-31.998;115.906;2023-03-22T01:54:42;11.27;;;2.70;;
5939;SDS011;2995;-31.998;115.906;2023-03-22T01:57:16;11.00;;;2.47;;
5939;SDS011;2995;-31.998;115.906;2023-03-22T01:59:49;10.47;;;3.00;;
5939;SDS011;2995;-31.998;115.906;2023-03-22T02:02:20;9.60;;;3.27;;
5939;SDS011;2995;-31.998;115.906;2023-03-22T02:04:51;8.73;;;2.60;;
5939;SDS011;2995;-31.998;115.906;2023-03-22T02:07:24;8.63;;;2.90;;
5939;SDS011;2995;-31.998;115.906;2023-03-22T02:09:56;9.20;;;2.93;;
5939;SDS011;2995;-31.998;115.906;2023-03-22T02:12:29;11.80;;;2.53;;
5939;SDS011;2995;-31.998;115.906;2023-03-22T02:15:09;14.13;;;2.67;;
5939;SDS011;2995;-31.998;115.906;2023-03-22T02:17:51;11.27;;;3.30;;
5939;SDS011;2995;-31.998;115.906;2023-03-22T02:20:41;16.27;;;3.30;;
5939;SDS011;2995;-31.998;115.906;2023-03-22T02:26:58;11.47;;;3.13;;
5939;SDS011;2995;-31.998;115.906;2023-03-22T02:29:47;9.13;;;2.07;;
5939;SDS011;2995;-31.998;115.906;2023-03-22T02:32:33;6.90;;;2.53;;
5939;SDS011;2995;-31.998;115.906;2023-03-22T02:38:27;7.10;;;2.27;;
5939;SDS011;2995;-31.998;115.906;2023-03-22T02:41:43;7.83;;;2.27;;
5939;SDS011;2995;-31.998;115.906;2023-03-22T02:44:22;12.07;;;2.80;;
5939;SDS011;2995;-31.998;115.906;2023-03-22T02:46:59;6.97;;;2.70;;
5939;SDS011;2995;-31.998;115.906;2023-03-22T02:49:33;7.07;;;2.47;;
5939;SDS011;2995;-31.998;115.906;2023-03-22T02:52:10;9.33;;;2.30;;
5939;SDS011;2995;-31.998;115.906;2023-03-22T02:54:46;10.00;;;2.43;;
5939;SDS011;2995;-31.998;115.906;2023-03-22T02:57:27;12.80;;;2.40;;
5939;SDS011;2995;-31.998;115.906;2023-03-22T03:00:03;12.60;;;2.80;;
5939;SDS011;2995;-31.998;115.906;2023-03-22T03:02:38;8.07;;;2.33;;
5939;SDS011;2995;-31.998;115.906;2023-03-22T03:05:12;10.23;;;3.00;;
5939;SDS011;2995;-31.998;115.906;2023-03-22T03:07:47;7.47;;;2.17;;
5939;SDS011;2995;-31.998;115.906;2023-03-22T03:10:20;8.23;;;2.30;;
5939;SDS011;2995;-31.998;115.906;2023-03-22T03:12:54;9.30;;;2.10;;
5939;SDS011;2995;-31.998;115.906;2023-03-22T03:15:26;8.60;;;2.17;;
5939;SDS011;2995;-31.998;115.906;2023-03-22T03:18:02;9.93;;;2.47;;
5939;SDS011;2995;-31.998;115.906;2023-03-22T03:20:45;6.87;;;2.20;;
5939;SDS011;2995;-31.998;115.906;2023-03-22T03:23:27;5.37;;;2.20;;
5939;SDS011;2995;-31.998;115.906;2023-03-22T03:26:07;4.20;;;2.00;;
5939;SDS011;2995;-31.998;115.906;2023-03-22T03:28:48;9.67;;;3.33;;
5939;SDS011;2995;-31.998;115.906;2023-03-22T03:31:26;7.83;;;2.20;;
5939;SDS011;2995;-31.998;115.906;2023-03-22T03:34:04;5.03;;;2.20;;
5939;SDS011;2995;-31.998;115.906;2023-03-22T03:36:42;9.17;;;2.40;;
5939;SDS011;2995;-31.998;115.906;2023-03-22T03:39:19;8.67;;;2.63;;
5939;SDS011;2995;-31.998;115.906;2023-03-22T03:41:52;7.40;;;2.20;;
5939;SDS011;2995;-31.998;115.906;2023-03-22T03:44:28;10.03;;;2.50;;
5939;SDS011;2995;-31.998;115.906;2023-03-22T03:47:01;12.37;;;2.80;;
5939;SDS011;2995;-31.998;115.906;2023-03-22T03:49:33;16.37;;;3.00;;
5939;SDS011;2995;-31.998;115.906;2023-03-22T03:52:05;4.50;;;2.23;;
5939;SDS011;2995;-31.998;115.906;2023-03-22T03:54:36;6.90;;;2.20;;
5939;SDS011;2995;-31.998;115.906;2023-03-22T03:57:08;6.20;;;2.30;;
5939;SDS011;2995;-31.998;115.906;2023-03-22T03:59:43;8.03;;;2.23;;
5939;SDS011;2995;-31.998;115.906;2023-03-22T04:02:16;9.77;;;2.40;;
5939;SDS011;2995;-31.998;115.906;2023-03-22T04:04:48;7.07;;;2.17;;
5939;SDS011;2995;-31.998;115.906;2023-03-22T04:07:19;11.40;;;2.30;;
5939;SDS011;2995;-31.998;115.906;2023-03-22T04:09:50;6.83;;;2.33;;
5939;SDS011;2995;-31.998;115.906;2023-03-22T04:12:22;14.93;;;2.40;;
5939;SDS011;2995;-31.998;115.906;2023-03-22T04:14:55;5.47;;;2.00;;
5939;SDS011;2995;-31.998;115.906;2023-03-22T04:17:26;7.23;;;2.23;;
5939;SDS011;2995;-31.998;115.906;2023-03-22T04:19:58;8.10;;;2.40;;
5939;SDS011;2995;-31.998;115.906;2023-03-22T04:22:32;7.40;;;2.40;;
5939;SDS011;2995;-31.998;115.906;2023-03-22T04:25:03;8.27;;;1.83;;
5939;SDS011;2995;-31.998;115.906;2023-03-22T04:27:37;6.37;;;2.00;;
5939;SDS011;2995;-31.998;115.906;2023-03-22T04:30:11;10.03;;;3.37;;
5939;SDS011;2995;-31.998;115.906;2023-03-22T04:32:45;13.27;;;2.87;;
5939;SDS011;2995;-31.998;115.906;2023-03-22T04:35:17;10.17;;;2.93;;
5939;SDS011;2995;-31.998;115.906;2023-03-22T04:37:48;13.57;;;3.07;;
5939;SDS011;2995;-31.998;115.906;2023-03-22T04:40:19;9.40;;;2.93;;
5939;SDS011;2995;-31.998;115.906;2023-03-22T04:42:51;12.80;;;3.03;;
5939;SDS011;2995;-31.998;115.906;2023-03-22T04:45:25;11.87;;;2.73;;
5939;SDS011;2995;-31.998;115.906;2023-03-22T04:47:58;12.10;;;2.33;;
5939;SDS011;2995;-31.998;115.906;2023-03-22T04:50:30;12.03;;;2.73;;
5939;SDS011;2995;-31.998;115.906;2023-03-22T04:53:01;10.87;;;2.97;;
5939;SDS011;2995;-31.998;115.906;2023-03-22T04:55:33;10.70;;;3.20;;
5939;SDS011;2995;-31.998;115.906;2023-03-22T04:58:04;12.73;;;2.63;;
5939;SDS011;2995;-31.998;115.906;2023-03-22T05:00:37;7.93;;;2.70;;
5939;SDS011;2995;-31.998;115.906;2023-03-22T05:03:08;10.80;;;2.53;;
5939;SDS011;2995;-31.998;115.906;2023-03-22T05:05:43;12.23;;;3.10;;
5939;SDS011;2995;-31.998;115.906;2023-03-22T05:08:20;13.00;;;2.60;;
5939;SDS011;2995;-31.998;115.906;2023-03-22T05:10:52;12.90;;;2.80;;
5939;SDS011;2995;-31.998;115.906;2023-03-22T05:13:28;8.30;;;2.43;;
5939;SDS011;2995;-31.998;115.906;2023-03-22T05:16:01;10.83;;;3.33;;
5939;SDS011;2995;-31.998;115.906;2023-03-22T05:18:33;10.53;;;3.40;;
5939;SDS011;2995;-31.998;115.906;2023-03-22T05:21:10;12.70;;;2.70;;
5939;SDS011;2995;-31.998;115.906;2023-03-22T05:23:43;11.47;;;3.27;;
5939;SDS011;2995;-31.998;115.906;2023-03-22T05:26:14;7.70;;;2.30;;
5939;SDS011;2995;-31.998;115.906;2023-03-22T05:28:46;10.13;;;3.20;;
5939;SDS011;2995;-31.998;115.906;2023-03-22T05:31:19;9.90;;;3.37;;
5939;SDS011;2995;-31.998;115.906;2023-03-22T05:33:53;10.53;;;2.87;;
5939;SDS011;2995;-31.998;115.906;2023-03-22T05:36:25;8.33;;;2.30;;
5939;SDS011;2995;-31.998;115.906;2023-03-22T05:38:56;8.17;;;3.07;;
5939;SDS011;2995;-31.998;115.906;2023-03-22T05:41:27;7.43;;;2.60;;
5939;SDS011;2995;-31.998;115.906;2023-03-22T05:43:59;7.80;;;2.33;;
5939;SDS011;2995;-31.998;115.906;2023-03-22T05:46:32;11.83;;;2.53;;
5939;SDS011;2995;-31.998;115.906;2023-03-22T05:49:04;10.47;;;2.50;;
5939;SDS011;2995;-31.998;115.906;2023-03-22T05:51:35;9.20;;;2.83;;
5939;SDS011;2995;-31.998;115.906;2023-03-22T05:54:07;16.00;;;2.47;;
5939;SDS011;2995;-31.998;115.906;2023-03-22T05:56:38;7.57;;;2.63;;
5939;SDS011;2995;-31.998;115.906;2023-03-22T05:59:09;9.27;;;2.30;;
5939;SDS011;2995;-31.998;115.906;2023-03-22T06:01:43;9.13;;;3.17;;
5939;SDS011;2995;-31.998;115.906;2023-03-22T06:04:14;8.37;;;2.60;;
5939;SDS011;2995;-31.998;115.906;2023-03-22T06:06:46;13.53;;;3.07;;
5939;SDS011;2995;-31.998;115.906;2023-03-22T06:09:19;9.87;;;3.20;;
5939;SDS011;2995;-31.998;115.906;2023-03-22T06:11:50;14.67;;;2.43;;
5939;SDS011;2995;-31.998;115.906;2023-03-22T06:14:21;8.70;;;2.87;;
5939;SDS011;2995;-31.998;115.906;2023-03-22T06:16:54;9.37;;;2.70;;
5939;SDS011;2995;-31.998;115.906;2023-03-22T06:19:26;8.17;;;2.40;;
5939;SDS011;2995;-31.998;115.906;2023-03-22T06:21:57;6.33;;;2.20;;
5939;SDS011;2995;-31.998;115.906;2023-03-22T06:24:28;9.80;;;2.80;;
5939;SDS011;2995;-31.998;115.906;2023-03-22T06:27:00;9.10;;;2.00;;
5939;SDS011;2995;-31.998;115.906;2023-03-22T06:29:32;8.63;;;2.47;;
5939;SDS011;2995;-31.998;115.906;2023-03-22T06:32:06;9.60;;;2.40;;
5939;SDS011;2995;-31.998;115.906;2023-03-22T06:34:37;9.10;;;2.67;;
5939;SDS011;2995;-31.998;115.906;2023-03-22T06:37:09;6.03;;;2.10;;
5939;SDS011;2995;-31.998;115.906;2023-03-22T06:39:40;9.10;;;2.27;;
5939;SDS011;2995;-31.998;115.906;2023-03-22T06:42:12;11.63;;;2.23;;
5939;SDS011;2995;-31.998;115.906;2023-03-22T06:44:43;20.70;;;2.70;;
5939;SDS011;2995;-31.998;115.906;2023-03-22T06:47:17;8.73;;;2.20;;
5939;SDS011;2995;-31.998;115.906;2023-03-22T06:49:50;6.70;;;2.37;;
5939;SDS011;2995;-31.998;115.906;2023-03-22T06:52:21;7.43;;;2.10;;
5939;SDS011;2995;-31.998;115.906;2023-03-22T06:54:52;8.73;;;2.30;;
5939;SDS011;2995;-31.998;115.906;2023-03-22T06:57:24;5.80;;;2.20;;
5939;SDS011;2995;-31.998;115.906;2023-03-22T06:59:56;7.23;;;2.43;;
5939;SDS011;2995;-31.998;115.906;2023-03-22T07:02:32;9.20;;;2.60;;
5939;SDS011;2995;-31.998;115.906;2023-03-22T07:05:04;9.87;;;2.43;;
5939;SDS011;2995;-31.998;115.906;2023-03-22T07:07:36;13.93;;;2.80;;
5939;SDS011;2995;-31.998;115.906;2023-03-22T07:10:10;12.70;;;2.67;;
5939;SDS011;2995;-31.998;115.906;2023-03-22T07:12:45;7.43;;;2.40;;
5939;SDS011;2995;-31.998;115.906;2023-03-22T07:15:17;8.20;;;2.40;;
5939;SDS011;2995;-31.998;115.906;2023-03-22T07:17:51;10.57;;;2.33;;
5939;SDS011;2995;-31.998;115.906;2023-03-22T07:20:23;8.13;;;2.47;;
5939;SDS011;2995;-31.998;115.906;2023-03-22T07:22:55;13.07;;;3.03;;
5939;SDS011;2995;-31.998;115.906;2023-03-22T07:25:33;10.77;;;2.70;;
5939;SDS011;2995;-31.998;115.906;2023-03-22T07:28:07;11.23;;;2.70;;
5939;SDS011;2995;-31.998;115.906;2023-03-22T07:30:42;5.03;;;1.97;;
5939;SDS011;2995;-31.998;115.906;2023-03-22T07:33:18;7.70;;;2.27;;
5939;SDS011;2995;-31.998;115.906;2023-03-22T07:35:50;11.57;;;2.30;;
5939;SDS011;2995;-31.998;115.906;2023-03-22T07:38:21;10.70;;;2.20;;
5939;SDS011;2995;-31.998;115.906;2023-03-22T07:40:55;12.70;;;2.43;;
5939;SDS011;2995;-31.998;115.906;2023-03-22T07:43:26;7.23;;;2.20;;
5939;SDS011;2995;-31.998;115.906;2023-03-22T07:45:57;10.27;;;2.40;;
5939;SDS011;2995;-31.998;115.906;2023-03-22T07:48:31;10.23;;;2.20;;
5939;SDS011;2995;-31.998;115.906;2023-03-22T07:51:04;8.80;;;2.23;;
5939;SDS011;2995;-31.998;115.906;2023-03-22T07:53:35;8.87;;;2.13;;
5939;SDS011;2995;-31.998;115.906;2023-03-22T07:56:07;12.60;;;2.40;;
5939;SDS011;2995;-31.998;115.906;2023-03-22T07:58:38;12.83;;;2.90;;
5939;SDS011;2995;-31.998;115.906;2023-03-22T08:01:10;7.27;;;2.53;;
5939;SDS011;2995;-31.998;115.906;2023-03-22T08:03:43;9.20;;;2.00;;
5939;SDS011;2995;-31.998;115.906;2023-03-22T08:06:14;6.27;;;1.90;;
5939;SDS011;2995;-31.998;115.906;2023-03-22T08:08:47;13.53;;;2.27;;
5939;SDS011;2995;-31.998;115.906;2023-03-22T08:11:18;9.27;;;2.70;;
5939;SDS011;2995;-31.998;115.906;2023-03-22T08:13:49;11.57;;;2.57;;
5939;SDS011;2995;-31.998;115.906;2023-03-22T08:16:21;9.87;;;2.67;;
5939;SDS011;2995;-31.998;115.906;2023-03-22T08:18:54;10.17;;;2.03;;
5939;SDS011;2995;-31.998;115.906;2023-03-22T08:21:25;5.70;;;1.90;;
5939;SDS011;2995;-31.998;115.906;2023-03-22T08:23:57;6.73;;;2.23;;
5939;SDS011;2995;-31.998;115.906;2023-03-22T08:26:28;10.40;;;2.50;;
5939;SDS011;2995;-31.998;115.906;2023-03-22T08:28:59;9.33;;;2.13;;
5939;SDS011;2995;-31.998;115.906;2023-03-22T08:31:30;8.83;;;2.27;;
5939;SDS011;2995;-31.998;115.906;2023-03-22T08:34:04;8.60;;;2.50;;
5939;SDS011;2995;-31.998;115.906;2023-03-22T08:36:35;6.83;;;2.00;;
5939;SDS011;2995;-31.998;115.906;2023-03-22T08:39:07;8.73;;;2.33;;
5939;SDS011;2995;-31.998;115.906;2023-03-22T08:41:38;7.07;;;2.20;;
5939;SDS011;2995;-31.998;115.906;2023-03-22T08:44:09;10.37;;;2.30;;
5939;SDS011;2995;-31.998;115.906;2023-03-22T08:46:41;9.33;;;1.80;;
5939;SDS011;2995;-31.998;115.906;2023-03-22T08:49:16;6.37;;;1.77;;
5939;SDS011;2995;-31.998;115.906;2023-03-22T08:51:47;6.53;;;2.17;;
5939;SDS011;2995;-31.998;115.906;2023-03-22T08:54:19;5.83;;;2.00;;
5939;SDS011;2995;-31.998;115.906;2023-03-22T08:56:50;10.47;;;2.43;;
5939;SDS011;2995;-31.998;115.906;2023-03-22T08:59:21;7.33;;;2.77;;
5939;SDS011;2995;-31.998;115.906;2023-03-22T09:01:52;7.60;;;2.10;;
5939;SDS011;2995;-31.998;115.906;2023-03-22T09:04:26;8.00;;;1.97;;
5939;SDS011;2995;-31.998;115.906;2023-03-22T09:06:57;8.77;;;2.23;;
5939;SDS011;2995;-31.998;115.906;2023-03-22T09:09:28;11.23;;;2.00;;
5939;SDS011;2995;-31.998;115.906;2023-03-22T09:11:59;6.30;;;1.70;;
5939;SDS011;2995;-31.998;115.906;2023-03-22T09:14:31;9.57;;;2.10;;
5939;SDS011;2995;-31.998;115.906;2023-03-22T09:17:02;12.77;;;2.60;;
5939;SDS011;2995;-31.998;115.906;2023-03-22T09:19:35;4.93;;;1.80;;
5939;SDS011;2995;-31.998;115.906;2023-03-22T09:22:06;5.70;;;1.93;;
5939;SDS011;2995;-31.998;115.906;2023-03-22T09:24:37;8.63;;;2.70;;
5939;SDS011;2995;-31.998;115.906;2023-03-22T09:27:09;10.63;;;2.37;;
5939;SDS011;2995;-31.998;115.906;2023-03-22T09:29:40;6.63;;;1.70;;
5939;SDS011;2995;-31.998;115.906;2023-03-22T09:32:15;6.03;;;1.90;;
5939;SDS011;2995;-31.998;115.906;2023-03-22T09:34:48;10.57;;;2.20;;
5939;SDS011;2995;-31.998;115.906;2023-03-22T09:37:19;5.90;;;1.70;;
5939;SDS011;2995;-31.998;115.906;2023-03-22T09:39:56;9.50;;;2.00;;
5939;SDS011;2995;-31.998;115.906;2023-03-22T09:42:28;7.60;;;1.93;;
5939;SDS011;2995;-31.998;115.906;2023-03-22T09:45:04;7.33;;;2.27;;
5939;SDS011;2995;-31.998;115.906;2023-03-22T09:47:41;6.20;;;1.80;;
5939;SDS011;2995;-31.998;115.906;2023-03-22T09:50:17;5.67;;;2.00;;
5939;SDS011;2995;-31.998;115.906;2023-03-22T09:52:50;16.33;;;2.90;;
5939;SDS011;2995;-31.998;115.906;2023-03-22T09:55:24;11.77;;;3.20;;
5939;SDS011;2995;-31.998;115.906;2023-03-22T09:58:04;16.17;;;4.93;;
5939;SDS011;2995;-31.998;115.906;2023-03-22T10:00:42;9.03;;;3.90;;
5939;SDS011;2995;-31.998;115.906;2023-03-22T10:03:18;7.97;;;3.57;;
5939;SDS011;2995;-31.998;115.906;2023-03-22T10:05:58;10.70;;;3.43;;
5939;SDS011;2995;-31.998;115.906;2023-03-22T10:08:36;10.57;;;3.37;;
5939;SDS011;2995;-31.998;115.906;2023-03-22T10:11:19;5.43;;;2.00;;
5939;SDS011;2995;-31.998;115.906;2023-03-22T10:13:59;4.80;;;2.07;;
5939;SDS011;2995;-31.998;115.906;2023-03-22T10:16:36;6.50;;;2.57;;
5939;SDS011;2995;-31.998;115.906;2023-03-22T10:19:12;7.00;;;2.30;;
5939;SDS011;2995;-31.998;115.906;2023-03-22T10:21:50;8.83;;;2.33;;
5939;SDS011;2995;-31.998;115.906;2023-03-22T10:24:25;5.10;;;2.00;;
5939;SDS011;2995;-31.998;115.906;2023-03-22T10:26:59;9.00;;;2.00;;
5939;SDS011;2995;-31.998;115.906;2023-03-22T10:29:33;4.80;;;1.87;;
5939;SDS011;2995;-31.998;115.906;2023-03-22T10:32:10;7.07;;;1.80;;
5939;SDS011;2995;-31.998;115.906;2023-03-22T10:34:43;4.20;;;1.90;;
5939;SDS011;2995;-31.998;115.906;2023-03-22T10:37:18;5.33;;;1.87;;
5939;SDS011;2995;-31.998;115.906;2023-03-22T10:39:52;2.97;;;1.70;;
5939;SDS011;2995;-31.998;115.906;2023-03-22T10:42:25;7.40;;;2.00;;
5939;SDS011;2995;-31.998;115.906;2023-03-22T10:44:59;5.53;;;1.53;;
5939;SDS011;2995;-31.998;115.906;2023-03-22T10:47:32;8.23;;;1.70;;
5939;SDS011;2995;-31.998;115.906;2023-03-22T10:50:10;3.77;;;2.37;;
5939;SDS011;2995;-31.998;115.906;2023-03-22T10:52:48;5.27;;;1.70;;
5939;SDS011;2995;-31.998;115.906;2023-03-22T10:55:24;7.23;;;1.97;;
5939;SDS011;2995;-31.998;115.906;2023-03-22T10:57:58;4.13;;;1.33;;
5939;SDS011;2995;-31.998;115.906;2023-03-22T11:00:42;2.60;;;1.43;;
5939;SDS011;2995;-31.998;115.906;2023-03-22T11:03:25;2.70;;;1.33;;
5939;SDS011;2995;-31.998;115.906;2023-03-22T11:06:02;12.20;;;2.13;;
5939;SDS011;2995;-31.998;115.906;2023-03-22T11:08:42;5.77;;;1.47;;
5939;SDS011;2995;-31.998;115.906;2023-03-22T11:11:15;7.03;;;1.30;;
5939;SDS011;2995;-31.998;115.906;2023-03-22T11:13:50;6.33;;;1.47;;
5939;SDS011;2995;-31.998;115.906;2023-03-22T11:16:28;3.67;;;1.20;;
5939;SDS011;2995;-31.998;115.906;2023-03-22T11:19:00;7.97;;;1.53;;
5939;SDS011;2995;-31.998;115.906;2023-03-22T11:21:32;5.07;;;1.83;;
5939;SDS011;2995;-31.998;115.906;2023-03-22T11:24:06;7.27;;;1.50;;
5939;SDS011;2995;-31.998;115.906;2023-03-22T11:26:41;11.70;;;1.97;;
5939;SDS011;2995;-31.998;115.906;2023-03-22T11:29:29;4.57;;;1.70;;
5939;SDS011;2995;-31.998;115.906;2023-03-22T11:32:18;5.93;;;1.80;;
5939;SDS011;2995;-31.998;115.906;2023-03-22T11:35:00;5.70;;;1.30;;
5939;SDS011;2995;-31.998;115.906;2023-03-22T11:37:34;5.33;;;1.80;;
5939;SDS011;2995;-31.998;115.906;2023-03-22T11:40:15;7.57;;;1.50;;
5939;SDS011;2995;-31.998;115.906;2023-03-22T11:42:48;5.20;;;1.60;;
5939;SDS011;2995;-31.998;115.906;2023-03-22T11:45:23;3.50;;;1.50;;
5939;SDS011;2995;-31.998;115.906;2023-03-22T11:48:00;5.93;;;1.47;;
5939;SDS011;2995;-31.998;115.906;2023-03-22T11:50:34;5.70;;;1.70;;
5939;SDS011;2995;-31.998;115.906;2023-03-22T11:53:10;10.50;;;1.80;;
5939;SDS011;2995;-31.998;115.906;2023-03-22T11:55:46;5.03;;;1.60;;
5939;SDS011;2995;-31.998;115.906;2023-03-22T11:58:24;7.87;;;1.70;;
5939;SDS011;2995;-31.998;115.906;2023-03-22T12:00:57;7.60;;;2.27;;
5939;SDS011;2995;-31.998;115.906;2023-03-22T12:03:31;8.50;;;1.87;;
5939;SDS011;2995;-31.998;115.906;2023-03-22T12:06:06;5.87;;;1.80;;
5939;SDS011;2995;-31.998;115.906;2023-03-22T12:08:46;10.20;;;1.90;;
5939;SDS011;2995;-31.998;115.906;2023-03-22T12:11:24;6.03;;;1.63;;
5939;SDS011;2995;-31.998;115.906;2023-03-22T12:14:00;5.43;;;1.70;;
5939;SDS011;2995;-31.998;115.906;2023-03-22T12:16:37;7.90;;;2.10;;
5939;SDS011;2995;-31.998;115.906;2023-03-22T12:19:18;5.30;;;1.67;;
5939;SDS011;2995;-31.998;115.906;2023-03-22T12:22:01;9.03;;;2.00;;
5939;SDS011;2995;-31.998;115.906;2023-03-22T12:24:37;10.30;;;2.20;;
5939;SDS011;2995;-31.998;115.906;2023-03-22T12:27:12;3.17;;;1.30;;
5939;SDS011;2995;-31.998;115.906;2023-03-22T12:29:48;7.83;;;1.90;;
5939;SDS011;2995;-31.998;115.906;2023-03-22T12:32:23;9.27;;;1.83;;
5939;SDS011;2995;-31.998;115.906;2023-03-22T12:34:56;6.20;;;1.93;;
5939;SDS011;2995;-31.998;115.906;2023-03-22T12:37:29;8.20;;;1.93;;
5939;SDS011;2995;-31.998;115.906;2023-03-22T12:40:03;8.97;;;1.77;;
5939;SDS011;2995;-31.998;115.906;2023-03-22T12:42:47;9.70;;;1.83;;
5939;SDS011;2995;-31.998;115.906;2023-03-22T12:45:25;7.60;;;2.37;;
5939;SDS011;2995;-31.998;115.906;2023-03-22T12:48:01;13.00;;;2.37;;
5939;SDS011;2995;-31.998;115.906;2023-03-22T12:50:36;5.23;;;1.80;;
5939;SDS011;2995;-31.998;115.906;2023-03-22T12:53:11;11.37;;;2.27;;
5939;SDS011;2995;-31.998;115.906;2023-03-22T12:55:45;6.37;;;1.60;;
5939;SDS011;2995;-31.998;115.906;2023-03-22T12:58:21;8.30;;;1.70;;
5939;SDS011;2995;-31.998;115.906;2023-03-22T13:00:54;9.20;;;1.90;;
5939;SDS011;2995;-31.998;115.906;2023-03-22T13:03:28;7.37;;;1.53;;
5939;SDS011;2995;-31.998;115.906;2023-03-22T13:06:27;5.00;;;2.00;;
5939;SDS011;2995;-31.998;115.906;2023-03-22T13:09:13;9.30;;;2.30;;
5939;SDS011;2995;-31.998;115.906;2023-03-22T13:11:45;7.07;;;1.70;;
5939;SDS011;2995;-31.998;115.906;2023-03-22T13:17:36;8.03;;;2.10;;
5939;SDS011;2995;-31.998;115.906;2023-03-22T13:20:28;4.77;;;1.80;;
5939;SDS011;2995;-31.998;115.906;2023-03-22T13:23:04;6.63;;;2.17;;
5939;SDS011;2995;-31.998;115.906;2023-03-22T13:26:03;5.67;;;2.00;;
5939;SDS011;2995;-31.998;115.906;2023-03-22T13:28:43;5.00;;;1.70;;
5939;SDS011;2995;-31.998;115.906;2023-03-22T13:31:37;8.30;;;2.10;;
5939;SDS011;2995;-31.998;115.906;2023-03-22T13:34:14;10.47;;;3.00;;
5939;SDS011;2995;-31.998;115.906;2023-03-22T13:36:54;5.03;;;2.40;;
5939;SDS011;2995;-31.998;115.906;2023-03-22T13:39:31;8.83;;;2.43;;
5939;SDS011;2995;-31.998;115.906;2023-03-22T13:42:08;3.97;;;1.90;;
5939;SDS011;2995;-31.998;115.906;2023-03-22T13:44:51;12.70;;;3.00;;
5939;SDS011;2995;-31.998;115.906;2023-03-22T13:47:34;6.37;;;2.77;;
5939;SDS011;2995;-31.998;115.906;2023-03-22T13:50:13;11.70;;;2.90;;
5939;SDS011;2995;-31.998;115.906;2023-03-22T13:52:51;6.20;;;2.17;;
5939;SDS011;2995;-31.998;115.906;2023-03-22T13:55:37;8.60;;;2.50;;
5939;SDS011;2995;-31.998;115.906;2023-03-22T13:58:10;9.03;;;2.70;;
5939;SDS011;2995;-31.998;115.906;2023-03-22T14:01:03;10.07;;;2.60;;
5939;SDS011;2995;-31.998;115.906;2023-03-22T14:03:41;5.87;;;2.10;;
5939;SDS011;2995;-31.998;115.906;2023-03-22T14:06:17;7.63;;;2.20;;
5939;SDS011;2995;-31.998;115.906;2023-03-22T14:08:53;8.53;;;2.67;;
5939;SDS011;2995;-31.998;115.906;2023-03-22T14:11:28;6.93;;;2.37;;
5939;SDS011;2995;-31.998;115.906;2023-03-22T14:14:06;10.80;;;2.70;;
5939;SDS011;2995;-31.998;115.906;2023-03-22T14:16:41;9.60;;;2.87;;
5939;SDS011;2995;-31.998;115.906;2023-03-22T14:19:16;5.57;;;2.23;;
5939;SDS011;2995;-31.998;115.906;2023-03-22T14:21:52;8.17;;;2.67;;
5939;SDS011;2995;-31.998;115.906;2023-03-22T14:24:26;9.53;;;2.53;;
5939;SDS011;2995;-31.998;115.906;2023-03-22T14:27:01;12.30;;;2.83;;
5939;SDS011;2995;-31.998;115.906;2023-03-22T14:29:41;6.97;;;2.77;;
5939;SDS011;2995;-31.998;115.906;2023-03-22T14:32:14;7.30;;;2.70;;
5939;SDS011;2995;-31.998;115.906;2023-03-22T14:34:50;17.37;;;3.07;;
5939;SDS011;2995;-31.998;115.906;2023-03-22T14:37:27;11.93;;;2.40;;
5939;SDS011;2995;-31.998;115.906;2023-03-22T14:39:58;6.47;;;2.30;;
5939;SDS011;2995;-31.998;115.906;2023-03-22T14:42:41;6.60;;;2.50;;
5939;SDS011;2995;-31.998;115.906;2023-03-22T14:45:15;8.40;;;2.37;;
5939;SDS011;2995;-31.998;115.906;2023-03-22T14:47:48;7.90;;;2.67;;
5939;SDS011;2995;-31.998;115.906;2023-03-22T14:50:22;7.80;;;2.93;;
5939;SDS011;2995;-31.998;115.906;2023-03-22T14:52:55;10.23;;;2.90;;
5939;SDS011;2995;-31.998;115.906;2023-03-22T14:55:27;9.57;;;2.60;;
5939;SDS011;2995;-31.998;115.906;2023-03-22T14:57:59;8.73;;;2.40;;
5939;SDS011;2995;-31.998;115.906;2023-03-22T15:00:31;9.93;;;2.23;;
5939;SDS011;2995;-31.998;115.906;2023-03-22T15:03:07;10.83;;;2.90;;
5939;SDS011;2995;-31.998;115.906;2023-03-22T15:05:42;8.90;;;2.30;;
5939;SDS011;2995;-31.998;115.906;2023-03-22T15:08:22;9.13;;;2.57;;
5939;SDS011;2995;-31.998;115.906;2023-03-22T15:10:55;8.53;;;2.37;;
5939;SDS011;2995;-31.998;115.906;2023-03-22T15:13:28;8.93;;;3.30;;
5939;SDS011;2995;-31.998;115.906;2023-03-22T15:16:00;7.57;;;2.10;;
5939;SDS011;2995;-31.998;115.906;2023-03-22T15:18:32;9.70;;;2.40;;
5939;SDS011;2995;-31.998;115.906;2023-03-22T15:21:04;9.40;;;2.07;;
5939;SDS011;2995;-31.998;115.906;2023-03-22T15:23:39;6.43;;;2.50;;